Time;durP1;ratioP1;P1;durP2;ratioP2;P2;SDS_P1;SDS_P2;PMS_P1;PMS_P2;Temp;Humidity;BMP_temperature;BMP_pressure;BME280_temperature;BME280_humidity;BME280_pressure;Samples;Min_cycle;Max_cycle;Signal;HPM_P1;HPM_P2
2022/05/06 00:00:47;;;;;;;;;;;;;;;19.61;46.13;95730.31;2073367;28;1275;-62
2022/05/06 00:01:50;;;;;;;;;;;;;;;19.62;45.96;95739.13;2074598;28;1605;-62
2022/05/06 00:02:52;;;;;;;;;;;;;;;19.63;46.23;95740.75;2071593;28;1406;-62
2022/05/06 00:03:53;;;;;;;;;;;;;;;19.63;45.93;95743.44;2074769;28;1482;-61
2022/05/06 00:04:55;;;;;;;;;;;;;;;19.62;45.94;95739.94;2074751;28;1579;-61
2022/05/06 00:05:57;;;;;;;;;;;;;;;19.62;46.10;95736.44;2073902;28;1025;-62
2022/05/06 00:06:58;;;;;;;;;;;;;;;19.60;46.08;95739.28;2073802;28;1508;-61
2022/05/06 00:08:00;;;;;;;;;;;;;;;19.61;46.03;95738.28;2072722;28;1712;-62
2022/05/06 00:09:02;;;;;;;;;;;;;;;19.63;46.17;95743.44;2069592;28;1632;-62
2022/05/06 00:10:05;;;;;;;;;;;;;;;19.62;46.26;95739.94;2069033;28;1553;-62
2022/05/06 00:11:06;;;;;;;;;;;;;;;19.64;46.25;95745.09;2074466;28;1660;-62
2022/05/06 00:12:08;;;;;;;;;;;;;;;19.62;46.31;95739.13;2073467;28;1479;-60
2022/05/06 00:13:10;;;;;;;;;;;;;;;19.62;46.00;95744.44;2072618;28;1101;-62
2022/05/06 00:14:11;;;;;;;;;;;;;;;19.59;46.01;95739.50;2074208;28;1906;-62
2022/05/06 00:15:14;;;;;;;;;;;;;;;19.58;45.91;95744.00;2074322;28;1106;-62
2022/05/06 00:16:17;;;;;;;;;;;;;;;19.57;45.80;95744.19;2073604;28;1449;-58
2022/05/06 00:17:19;;;;;;;;;;;;;;;19.55;45.94;95740.88;2078524;28;1159;-63
2022/05/06 00:18:20;;;;;;;;;;;;;;;19.54;46.05;95747.22;2074374;28;1263;-62
2022/05/06 00:19:22;;;;;;;;;;;;;;;19.53;45.61;95742.91;2074295;28;1212;-63
2022/05/06 00:20:23;;;;;;;;;;;;;;;19.53;45.90;95750.91;2076678;28;1519;-63
2022/05/06 00:21:25;;;;;;;;;;;;;;;19.53;45.76;95746.41;2076604;28;1020;-63
2022/05/06 00:22:26;;;;;;;;;;;;;;;19.52;45.78;95747.41;2070262;28;1776;-62
2022/05/06 00:23:28;;;;;;;;;;;;;;;19.52;45.78;95749.22;2074472;28;1049;-62
2022/05/06 00:24:29;;;;;;;;;;;;;;;19.55;45.64;95756.84;2073630;28;1528;-63
2022/05/06 00:25:31;;;;;;;;;;;;;;;19.57;45.74;95753.00;2073475;28;1528;-62
2022/05/06 00:26:33;;;;;;;;;;;;;;;19.57;45.35;95749.50;2073636;28;1436;-61
2022/05/06 00:27:37;;;;;;;;;;;;;;;19.61;45.60;95748.97;2079073;28;1044;-66
2022/05/06 00:28:39;;;;;;;;;;;;;;;19.59;45.64;95750.16;2073637;28;1653;-65
2022/05/06 00:29:41;;;;;;;;;;;;;;;19.58;45.53;95745.84;2074047;28;1365;-63
2022/05/06 00:30:42;;;;;;;;;;;;;;;19.59;45.44;95748.31;2073248;28;1642;-65
2022/05/06 00:31:44;;;;;;;;;;;;;;;19.59;45.48;95758.16;2069157;28;1652;-66
2022/05/06 00:32:45;;;;;;;;;;;;;;;19.59;45.58;95753.66;2066207;28;1585;-66
2022/05/06 00:33:48;;;;;;;;;;;;;;;19.59;45.73;95758.16;2074197;28;1338;-66
2022/05/06 00:34:49;;;;;;;;;;;;;;;19.59;45.54;95758.16;2075177;28;2029;-66
2022/05/06 00:35:52;;;;;;;;;;;;;;;19.60;47.20;95759.78;2073250;28;1803;-65
2022/05/06 00:36:55;;;;;;;;;;;;;;;19.64;45.56;95761.09;2076079;28;1450;-65
2022/05/06 00:37:56;;;;;;;;;;;;;;;19.68;45.33;95757.03;2073703;28;1728;-65
2022/05/06 00:38:58;;;;;;;;;;;;;;;19.70;45.40;95754.19;2074030;28;1371;-64
2022/05/06 00:39:59;;;;;;;;;;;;;;;19.71;45.47;95751.31;2073005;28;1613;-65
2022/05/06 00:41:01;;;;;;;;;;;;;;;19.73;45.40;95751.97;2076050;28;1615;-65
2022/05/06 00:42:02;;;;;;;;;;;;;;;19.73;45.35;95754.63;2080989;28;1171;-62
2022/05/06 00:43:04;;;;;;;;;;;;;;;19.74;45.39;95750.94;2074282;28;1214;-63
2022/05/06 00:44:06;;;;;;;;;;;;;;;19.75;45.51;95757.94;2069522;28;1295;-65
2022/05/06 00:45:08;;;;;;;;;;;;;;;19.74;45.46;95753.59;2073906;28;1310;-65
2022/05/06 00:46:15;;;;;;;;;;;;;;;19.74;45.36;95756.25;2074439;28;1129;-65
2022/05/06 00:47:19;;;;;;;;;;;;;;;19.76;45.28;95756.91;2074192;28;1499;-65
2022/05/06 00:48:22;;;;;;;;;;;;;;;19.75;45.61;95755.28;2074161;28;1557;-64
2022/05/06 00:49:24;;;;;;;;;;;;;;;19.75;45.55;95752.59;2074851;28;1481;-65
2022/05/06 00:50:26;;;;;;;;;;;;;;;19.77;45.35;95761.22;2072531;28;1437;-65
2022/05/06 00:51:28;;;;;;;;;;;;;;;19.79;45.36;95753.06;2073573;28;966;-65
2022/05/06 00:52:30;;;;;;;;;;;;;;;19.79;45.41;95753.88;2070156;28;1685;-65
2022/05/06 00:53:31;;;;;;;;;;;;;;;19.79;45.47;95753.88;2074216;28;2017;-64
2022/05/06 00:54:34;;;;;;;;;;;;;;;19.80;45.27;95754.69;2067667;28;1892;-64
2022/05/06 00:55:37;;;;;;;;;;;;;;;19.79;45.26;95753.88;2071151;28;1674;-64
2022/05/06 00:56:38;;;;;;;;;;;;;;;19.79;45.13;95756.53;2073808;28;1440;-64
2022/05/06 00:57:40;;;;;;;;;;;;;;;19.79;45.31;95753.06;2073732;28;1677;-64
2022/05/06 00:58:45;;;;;;;;;;;;;;;19.78;45.31;95754.91;2073913;28;1262;-64
2022/05/06 01:01:07;;;;;;;;;;;;;;;19.80;45.51;95755.50;2076066;28;1354;-64
2022/05/06 01:02:08;;;;;;;;;;;;;;;19.80;45.46;95755.50;2080360;28;1354;-63
2022/05/06 01:03:10;;;;;;;;;;;;;;;19.81;45.39;95754.50;2078994;28;1406;-62
2022/05/06 01:04:14;;;;;;;;;;;;;;;19.81;45.42;95759.84;2073731;28;1364;-64
2022/05/06 01:05:15;;;;;;;;;;;;;;;19.82;45.21;95758.81;2071846;28;1136;-62
2022/05/06 01:06:17;;;;;;;;;;;;;;;19.82;45.47;95758.00;2067700;28;2135;-65
2022/05/06 01:07:21;;;;;;;;;;;;;;;19.84;45.43;95756.81;2073408;28;1194;-65
2022/05/06 01:08:22;;;;;;;;;;;;;;;19.82;45.53;95748.16;2074011;28;1021;-65
2022/05/06 01:09:24;;;;;;;;;;;;;;;19.84;45.29;95755.97;2074200;28;1282;-65
2022/05/06 01:10:25;;;;;;;;;;;;;;;19.82;45.39;95755.34;2072241;28;1507;-64
2022/05/06 01:11:27;;;;;;;;;;;;;;;19.83;45.67;95757.81;2073934;28;1330;-64
2022/05/06 01:12:29;;;;;;;;;;;;;;;19.83;45.35;95755.16;2071611;28;1698;-61
2022/05/06 01:13:30;;;;;;;;;;;;;;;19.82;45.33;95756.16;2072774;28;1568;-64
2022/05/06 01:14:33;;;;;;;;;;;;;;;19.83;45.52;95749.81;2073693;28;1684;-64
2022/05/06 01:15:34;;;;;;;;;;;;;;;19.84;45.56;95758.66;2073166;28;1449;-65
2022/05/06 01:16:37;;;;;;;;;;;;;;;19.82;45.39;95758.81;2072647;28;1005;-62
2022/05/06 01:17:39;;;;;;;;;;;;;;;19.84;45.31;95759.47;2070744;28;1623;-65
2022/05/06 01:18:41;;;;;;;;;;;;;;;19.85;45.38;95757.63;2076823;28;1429;-65
2022/05/06 01:19:43;;;;;;;;;;;;;;;19.83;45.50;95760.50;2074035;28;1183;-65
2022/05/06 01:20:48;;;;;;;;;;;;;;;19.84;45.73;95762.13;2077369;28;1493;-65
2022/05/06 01:21:52;;;;;;;;;;;;;;;19.85;45.48;95763.78;2076322;28;1179;-65
2022/05/06 01:22:56;;;;;;;;;;;;;;;19.85;45.76;95762.97;2070623;28;1345;-66
2022/05/06 01:23:57;;;;;;;;;;;;;;;19.84;45.55;95759.47;2073909;28;1682;-68
2022/05/06 01:25:00;;;;;;;;;;;;;;;19.84;45.65;95762.13;2073347;28;1451;-66
2022/05/06 01:26:02;;;;;;;;;;;;;;;19.83;45.78;95754.31;2073895;28;982;-65
2022/05/06 01:27:06;;;;;;;;;;;;;;;19.85;45.60;95757.63;2081738;28;1554;-65
2022/05/06 01:28:10;;;;;;;;;;;;;;;19.85;45.79;95758.44;2075720;28;1514;-61
2022/05/06 01:29:12;;;;;;;;;;;;;;;19.85;45.48;95758.44;2068378;28;1509;-65
2022/05/06 01:30:44;;;;;;;;;;;;;;;19.86;45.84;95754.78;2074950;28;1096;-61
2022/05/06 01:31:46;;;;;;;;;;;;;;;19.75;45.97;95757.94;2079166;28;1540;-61
2022/05/06 01:32:47;;;;;;;;;;;;;;;19.72;46.26;95752.97;2070683;28;1582;-62
2022/05/06 01:33:54;;;;;;;;;;;;;;;19.70;46.27;95754.19;2071978;28;1628;-61
2022/05/06 01:34:59;;;;;;;;;;;;;;;19.66;46.21;95753.72;2072870;28;1976;-61
2022/05/06 01:36:04;;;;;;;;;;;;;;;19.67;46.64;95756.19;2073659;28;1288;-61
2022/05/06 01:37:07;;;;;;;;;;;;;;;19.67;46.75;95756.19;2073269;28;1673;-61
2022/05/06 01:38:09;;;;;;;;;;;;;;;19.66;46.61;95753.72;2073872;28;1225;-61
2022/05/06 01:39:12;;;;;;;;;;;;;;;19.66;46.81;95759.91;2073809;28;1641;-60
2022/05/06 01:40:15;;;;;;;;;;;;;;;19.67;46.38;95755.38;2072211;28;1310;-60
2022/05/06 01:41:22;;;;;;;;;;;;;;;19.71;46.78;95740.66;2080269;28;1113;-62
2022/05/06 01:42:24;;;;;;;;;;;;;;;19.72;46.39;95749.47;2070935;28;1292;-64
2022/05/06 01:43:26;;;;;;;;;;;;;;;19.72;46.90;95747.66;2072401;28;1452;-62
2022/05/06 01:44:30;;;;;;;;;;;;;;;19.72;46.78;95752.97;2076463;28;1544;-60
2022/05/06 01:45:34;;;;;;;;;;;;;;;19.71;46.41;95751.31;2069469;28;2087;-62
2022/05/06 01:46:36;;;;;;;;;;;;;;;19.71;46.76;95751.31;2072737;28;1655;-61
2022/05/06 01:47:40;;;;;;;;;;;;;;;19.71;46.86;95747.81;2070454;28;1662;-62
2022/05/06 01:48:42;;;;;;;;;;;;;;;19.72;46.82;95752.97;2073640;28;1682;-65
2022/05/06 01:49:45;;;;;;;;;;;;;;;19.72;46.61;95752.97;2080469;28;1379;-65
2022/05/06 01:50:47;;;;;;;;;;;;;;;19.77;46.95;95753.22;2077298;28;1084;-63
2022/05/06 01:51:49;;;;;;;;;;;;;;;19.78;46.49;95746.06;2067863;28;1619;-62
2022/05/06 01:52:51;;;;;;;;;;;;;;;19.76;46.79;95751.59;2070010;28;1556;-65
2022/05/06 01:53:52;;;;;;;;;;;;;;;19.74;47.08;95750.94;2074498;28;1464;-65
2022/05/06 01:54:54;;;;;;;;;;;;;;;19.74;46.89;95750.94;2074061;28;1573;-60
2022/05/06 01:55:55;;;;;;;;;;;;;;;19.74;46.73;95752.78;2073875;28;1903;-61
2022/05/06 01:56:58;;;;;;;;;;;;;;;19.73;47.19;95749.28;2073595;28;1199;-60
2022/05/06 01:58:00;;;;;;;;;;;;;;;19.72;47.07;95752.13;2073488;28;1190;-59
2022/05/06 01:59:02;;;;;;;;;;;;;;;19.74;47.59;95748.28;2073364;28;1116;-58
2022/05/06 02:00:05;;;;;;;;;;;;;;;19.77;47.00;95744.41;2072590;28;1539;-56
2022/05/06 02:01:06;;;;;;;;;;;;;;;19.78;47.25;95751.41;2072801;28;1667;-55
2022/05/06 02:02:08;;;;;;;;;;;;;;;19.76;47.34;95746.25;2071369;28;1296;-58
2022/05/06 02:05:16;;;;;;;;;;;;;;;19.77;47.50;95749.72;2066265;28;1554;-60
2022/05/06 02:05:52;;;;;;;;;;;;;;;19.81;47.13;95751.03;2072397;28;1560;-57
2022/05/06 02:06:53;;;;;;;;;;;;;;;19.78;47.15;95754.91;2073539;28;1069;-57
2022/05/06 02:07:55;;;;;;;;;;;;;;;19.77;47.12;95755.06;2080958;28;1747;-60
2022/05/06 02:08:56;;;;;;;;;;;;;;;19.76;46.83;95759.59;2081257;28;1251;-60
2022/05/06 02:09:58;;;;;;;;;;;;;;;19.74;46.92;95761.59;2073599;28;1174;-58
2022/05/06 02:11:01;;;;;;;;;;;;;;;19.74;47.15;95758.94;2081117;28;1760;-58
2022/05/06 02:12:02;;;;;;;;;;;;;;;19.72;47.24;95760.97;2080086;28;1250;-60
2022/05/06 02:13:04;;;;;;;;;;;;;;;19.72;47.07;95758.31;2071186;28;1037;-58
2022/05/06 02:14:06;;;;;;;;;;;;;;;19.72;47.16;95760.13;2065877;28;2073;-59
2022/05/06 02:15:08;;;;;;;;;;;;;;;19.69;46.95;95750.69;2071372;28;2041;-57
2022/05/06 02:16:09;;;;;;;;;;;;;;;19.70;46.95;95757.66;2073589;28;1079;-57
2022/05/06 02:17:11;;;;;;;;;;;;;;;19.70;46.99;95756.84;2078877;28;1557;-57
2022/05/06 02:18:13;;;;;;;;;;;;;;;19.69;46.89;95761.38;2073271;28;1414;-57
2022/05/06 02:19:14;;;;;;;;;;;;;;;19.67;46.90;95766.88;2073176;28;1660;-60
2022/05/06 02:20:16;;;;;;;;;;;;;;;19.67;47.01;95753.53;2072832;28;1426;-59
2022/05/06 02:21:17;;;;;;;;;;;;;;;19.67;46.92;95760.72;2071985;28;1590;-58
2022/05/06 02:22:19;;;;;;;;;;;;;;;19.69;47.09;95756.03;2071341;28;1388;-59
2022/05/06 02:23:21;;;;;;;;;;;;;;;19.66;46.93;95756.38;2073147;28;1567;-57
2022/05/06 02:24:22;;;;;;;;;;;;;;;19.65;46.89;95765.41;2075849;28;2388;-58
2022/05/06 02:25:24;;;;;;;;;;;;;;;19.64;46.91;95753.91;2067746;28;1407;-59
2022/05/06 02:26:25;;;;;;;;;;;;;;;19.65;47.02;95757.41;2069797;28;1290;-59
2022/05/06 02:27:27;;;;;;;;;;;;;;;19.64;47.05;95771.75;2080060;28;1170;-58
2022/05/06 02:28:28;;;;;;;;;;;;;;;19.65;46.92;95757.41;2072271;28;1109;-58
2022/05/06 02:29:30;;;;;;;;;;;;;;;19.65;46.88;95768.06;2072627;28;1543;-57
2022/05/06 02:33:15;;;;;;;;;;;;;;;19.62;46.98;95760.44;2071499;28;1317;-58
2022/05/06 02:34:18;;;;;;;;;;;;;;;19.62;47.00;95747.13;2073187;28;1469;-56
2022/05/06 02:35:19;;;;;;;;;;;;;;;19.62;46.81;95749.78;2073237;28;1080;-58
2022/05/06 02:36:21;;;;;;;;;;;;;;;19.61;46.93;95758.81;2070644;28;1650;-56
2022/05/06 02:37:22;;;;;;;;;;;;;;;19.59;46.86;95745.66;2073160;28;1235;-56
2022/05/06 02:38:25;;;;;;;;;;;;;;;19.60;46.76;95749.13;2074309;28;1444;-59
2022/05/06 02:39:26;;;;;;;;;;;;;;;19.60;46.75;95754.47;2073212;28;1117;-58
2022/05/06 02:40:28;;;;;;;;;;;;;;;19.59;46.65;95750.97;2073083;28;1148;-57
2022/05/06 02:41:30;;;;;;;;;;;;;;;19.59;46.92;95750.16;2072951;28;1630;-59
2022/05/06 02:42:31;;;;;;;;;;;;;;;19.59;46.98;95750.97;2070940;28;1233;-60
2022/05/06 02:43:33;;;;;;;;;;;;;;;19.59;46.73;95752.81;2070872;28;1520;-60
2022/05/06 02:44:34;;;;;;;;;;;;;;;19.58;46.59;95749.34;2073131;28;1482;-57
2022/05/06 02:45:36;;;;;;;;;;;;;;;19.58;46.88;95756.50;2080977;28;1073;-58
2022/05/06 02:46:38;;;;;;;;;;;;;;;19.59;46.95;95758.16;2079872;28;1488;-58
2022/05/06 02:47:39;;;;;;;;;;;;;;;19.58;46.73;95749.34;2072795;28;1511;-57
2022/05/06 02:48:41;;;;;;;;;;;;;;;19.59;46.79;95758.16;2067465;28;1538;-57
2022/05/06 02:49:42;;;;;;;;;;;;;;;19.59;46.62;95750.16;2075897;28;1603;-58
2022/05/06 02:50:44;;;;;;;;;;;;;;;19.58;46.69;95756.50;2071898;28;1490;-57
2022/05/06 02:51:46;;;;;;;;;;;;;;;19.59;46.61;95755.50;2080916;28;1231;-58
2022/05/06 02:52:47;;;;;;;;;;;;;;;19.59;46.61;95758.16;2076591;28;1433;-58
2022/05/06 02:53:49;;;;;;;;;;;;;;;19.58;46.69;95748.53;2072119;28;1609;-58
2022/05/06 02:54:50;;;;;;;;;;;;;;;19.58;46.68;95751.19;2071455;28;1625;-58
2022/05/06 02:55:52;;;;;;;;;;;;;;;19.58;46.64;95748.53;2072578;28;1997;-57
2022/05/06 02:56:56;;;;;;;;;;;;;;;19.58;46.83;95757.34;2072447;28;1693;-57
2022/05/06 02:57:57;;;;;;;;;;;;;;;19.57;46.73;95750.34;2072863;28;1254;-58
2022/05/06 02:58:59;;;;;;;;;;;;;;;19.57;46.67;95758.31;2075995;28;1620;-57
2022/05/06 03:00:01;;;;;;;;;;;;;;;19.58;46.85;95756.50;2074886;28;2115;-58
2022/05/06 03:01:02;;;;;;;;;;;;;;;19.58;46.79;95759.19;2072625;28;1733;-58
2022/05/06 03:02:04;;;;;;;;;;;;;;;19.60;46.63;95765.13;2071671;28;1377;-61
2022/05/06 03:03:05;;;;;;;;;;;;;;;19.58;46.80;95765.34;2070762;28;1449;-60
2022/05/06 03:04:08;;;;;;;;;;;;;;;19.60;46.71;95759.78;2076979;28;1490;-57
2022/05/06 03:05:10;;;;;;;;;;;;;;;19.59;46.51;95764.31;2072394;28;1673;-60
2022/05/06 03:06:12;;;;;;;;;;;;;;;19.59;46.74;95758.97;2073165;28;1164;-59
2022/05/06 03:07:13;;;;;;;;;;;;;;;19.61;46.88;95762.28;2073065;28;1132;-57
2022/05/06 03:08:15;;;;;;;;;;;;;;;19.59;46.63;95769.63;2072810;28;1652;-63
2022/05/06 03:09:16;;;;;;;;;;;;;;;19.59;46.88;95764.31;2073018;28;1242;-57
2022/05/06 03:10:18;;;;;;;;;;;;;;;19.59;46.61;95766.97;2068987;28;1684;-57
2022/05/06 03:11:19;;;;;;;;;;;;;;;19.59;46.54;95768.81;2067300;28;1621;-59
2022/05/06 03:12:26;;;;;;;;;;;;;;;19.59;46.68;95768.81;2070415;28;1206;-58
2022/05/06 03:13:28;;;;;;;;;;;;;;;19.59;46.80;95776.81;2070995;28;1444;-58
2022/05/06 03:14:29;;;;;;;;;;;;;;;19.58;46.74;95764.50;2073023;28;1084;-56
2022/05/06 03:15:31;;;;;;;;;;;;;;;19.58;46.70;95767.19;2073348;28;1307;-59
2022/05/06 03:16:33;;;;;;;;;;;;;;;19.57;46.79;95771.66;2081847;28;1985;-57
2022/05/06 03:17:35;;;;;;;;;;;;;;;19.58;46.47;95765.34;2080641;28;1131;-57
2022/05/06 03:18:36;;;;;;;;;;;;;;;19.57;46.56;95766.31;2072985;28;1044;-57
2022/05/06 03:19:38;;;;;;;;;;;;;;;19.56;46.76;95764.69;2072833;28;1306;-57
2022/05/06 03:20:39;;;;;;;;;;;;;;;19.57;46.71;95765.50;2076702;28;1425;-57
2022/05/06 03:21:41;;;;;;;;;;;;;;;19.57;46.78;95768.16;2068884;28;1130;-59
2022/05/06 03:22:46;;;;;;;;;;;;;;;19.56;46.46;95771.84;2064512;28;1561;-59
2022/05/06 03:23:50;;;;;;;;;;;;;;;19.55;46.52;95772.84;2073022;28;1757;-56
2022/05/06 03:24:52;;;;;;;;;;;;;;;19.56;46.77;95777.19;2077435;28;1516;-56
2022/05/06 03:25:54;;;;;;;;;;;;;;;19.55;46.58;95778.19;2078485;28;1568;-59
2022/05/06 03:26:55;;;;;;;;;;;;;;;19.55;46.52;95775.53;2073928;28;1568;-56
2022/05/06 03:28:01;;;;;;;;;;;;;;;19.56;46.74;95779.84;2072487;28;2031;-56
2022/05/06 03:29:03;;;;;;;;;;;;;;;19.55;46.47;95778.19;2070665;28;1222;-57
2022/05/06 03:30:05;;;;;;;;;;;;;;;19.55;46.57;95778.19;2071856;28;1547;-57
2022/05/06 03:31:06;;;;;;;;;;;;;;;19.54;46.58;95777.38;2072024;28;1818;-57
2022/05/06 03:32:08;;;;;;;;;;;;;;;19.55;46.51;95783.50;2071565;28;1347;-58
2022/05/06 03:33:12;;;;;;;;;;;;;;;19.55;46.62;95780.84;2066457;28;2460;-57
2022/05/06 03:34:15;;;;;;;;;;;;;;;19.55;46.77;95784.38;2068717;28;1412;-61
2022/05/06 03:35:17;;;;;;;;;;;;;;;19.55;46.44;95783.50;2074118;28;1309;-57
2022/05/06 03:36:19;;;;;;;;;;;;;;;19.55;46.49;95787.03;2074655;28;2000;-58
2022/05/06 03:37:20;;;;;;;;;;;;;;;19.54;46.74;95787.22;2074850;28;1316;-57
2022/05/06 03:38:22;;;;;;;;;;;;;;;19.53;46.47;95783.72;2074394;28;1360;-57
2022/05/06 03:39:23;;;;;;;;;;;;;;;19.53;46.64;95785.56;2074900;28;1238;-57
2022/05/06 03:40:25;;;;;;;;;;;;;;;19.54;46.69;95787.22;2075189;28;1422;-57
2022/05/06 03:41:26;;;;;;;;;;;;;;;19.53;46.59;95791.72;2074102;28;1264;-57
2022/05/06 03:42:28;;;;;;;;;;;;;;;19.54;46.76;95784.53;2072226;28;1312;-56
2022/05/06 03:43:30;;;;;;;;;;;;;;;19.55;46.54;95786.19;2073331;28;1166;-57
2022/05/06 03:44:31;;;;;;;;;;;;;;;19.53;46.58;95786.38;2070072;28;1271;-58
2022/05/06 03:45:33;;;;;;;;;;;;;;;19.53;46.76;95790.91;2070051;28;1045;-56
2022/05/06 03:46:34;;;;;;;;;;;;;;;19.54;46.69;95789.88;2076036;28;1495;-57
2022/05/06 03:47:36;;;;;;;;;;;;;;;19.55;46.58;95799.50;2074752;28;1682;-57
2022/05/06 03:48:38;;;;;;;;;;;;;;;19.52;46.67;95790.03;2080894;28;2383;-57
2022/05/06 03:49:39;;;;;;;;;;;;;;;19.52;46.54;95792.72;2081575;28;1520;-59
2022/05/06 03:52:01;;;;;;;;;;;;;;;19.52;46.46;95795.38;2074392;28;1445;-58
2022/05/06 03:53:03;;;;;;;;;;;;;;;19.52;46.58;95797.19;2071831;28;1260;-57
2022/05/06 03:54:04;;;;;;;;;;;;;;;19.53;46.72;95785.56;2074325;28;1084;-57
2022/05/06 03:55:06;;;;;;;;;;;;;;;19.54;46.50;95795.19;2075362;28;1538;-57
2022/05/06 03:56:08;;;;;;;;;;;;;;;19.52;46.50;95798.03;2069677;28;2007;-59
2022/05/06 03:57:09;;;;;;;;;;;;;;;19.52;46.69;95799.84;2070977;28;1712;-57
2022/05/06 03:58:11;;;;;;;;;;;;;;;19.53;46.79;95801.56;2076015;28;1489;-59
2022/05/06 03:59:12;;;;;;;;;;;;;;;19.52;46.88;95799.84;2073790;28;1164;-59
2022/05/06 04:00:14;;;;;;;;;;;;;;;19.51;46.69;95800.88;2073587;28;1501;-59
2022/05/06 04:01:17;;;;;;;;;;;;;;;19.53;46.93;95802.38;2080896;28;1257;-58
2022/05/06 04:02:18;;;;;;;;;;;;;;;19.59;46.46;95801.63;2076816;28;1491;-58
2022/05/06 04:03:20;;;;;;;;;;;;;;;19.57;46.62;95800.16;2072986;28;1104;-58
2022/05/06 04:04:22;;;;;;;;;;;;;;;19.57;46.47;95802.81;2073162;28;1554;-60
2022/05/06 04:05:23;;;;;;;;;;;;;;;19.55;46.50;95799.50;2073256;28;1274;-59
2022/05/06 04:06:26;;;;;;;;;;;;;;;19.55;46.71;95799.50;2074345;28;1095;-59
2022/05/06 04:07:27;;;;;;;;;;;;;;;19.54;46.61;95792.53;2067300;28;1680;-58
2022/05/06 04:08:29;;;;;;;;;;;;;;;19.54;46.60;95796.03;2071533;28;1219;-57
2022/05/06 04:09:30;;;;;;;;;;;;;;;19.53;46.58;95796.22;2074179;28;1178;-60
2022/05/06 04:10:32;;;;;;;;;;;;;;;19.54;46.76;95797.88;2072948;28;1622;-58
2022/05/06 04:11:33;;;;;;;;;;;;;;;19.54;46.84;95803.19;2081602;28;2138;-59
2022/05/06 04:12:35;;;;;;;;;;;;;;;19.55;46.58;95797.69;2078306;28;1090;-60
2022/05/06 04:13:37;;;;;;;;;;;;;;;19.55;46.91;95802.19;2073462;28;1112;-57
2022/05/06 04:14:38;;;;;;;;;;;;;;;19.55;46.97;95804.84;2073060;28;1667;-57
2022/05/06 04:15:40;;;;;;;;;;;;;;;19.54;47.04;95805.88;2073565;28;1806;-57
2022/05/06 04:16:41;;;;;;;;;;;;;;;19.54;47.08;95803.19;2081348;28;2174;-58
2022/05/06 04:17:43;;;;;;;;;;;;;;;19.54;47.17;95806.69;2073303;28;1394;-60
2022/05/06 04:18:45;;;;;;;;;;;;;;;19.56;47.03;95814.50;2076173;28;1527;-61
2022/05/06 04:23:51;;;;;;;;;;;;;;;19.57;47.17;95813.50;2073996;28;1272;-58
2022/05/06 04:24:52;;;;;;;;;;;;;;;19.58;47.40;95799.16;2081573;28;1120;-57
2022/05/06 04:25:55;;;;;;;;;;;;;;;19.57;47.18;95798.31;2081110;28;1639;-56
2022/05/06 04:26:57;;;;;;;;;;;;;;;19.57;47.12;95805.50;2072830;28;1474;-58
2022/05/06 04:27:58;;;;;;;;;;;;;;;19.58;47.29;95799.16;2073587;28;1497;-58
2022/05/06 04:29:00;;;;;;;;;;;;;;;19.58;47.19;95807.16;2073514;28;1354;-57
2022/05/06 04:30:01;;;;;;;;;;;;;;;19.58;47.27;95807.16;2068796;28;1425;-57
2022/05/06 04:31:03;;;;;;;;;;;;;;;19.57;47.32;95798.31;2073694;28;1543;-56
2022/05/06 04:32:05;;;;;;;;;;;;;;;19.57;47.36;95805.50;2073794;28;1256;-60
2022/05/06 04:33:06;;;;;;;;;;;;;;;19.57;47.55;95803.66;2072948;28;1511;-57
2022/05/06 04:34:08;;;;;;;;;;;;;;;19.58;47.27;95804.50;2074343;28;1113;-56
2022/05/06 04:35:10;;;;;;;;;;;;;;;19.58;47.43;95809.84;2077054;28;1486;-56
2022/05/06 04:36:11;;;;;;;;;;;;;;;19.59;47.58;95816.81;2074568;28;1165;-57
2022/05/06 04:37:13;;;;;;;;;;;;;;;19.62;47.39;95808.44;2073643;28;1923;-56
2022/05/06 04:38:14;;;;;;;;;;;;;;;19.59;47.56;95808.81;2081610;28;1093;-57
2022/05/06 04:39:16;;;;;;;;;;;;;;;19.59;47.33;95817.63;2073717;28;1450;-59
2022/05/06 04:40:18;;;;;;;;;;;;;;;19.59;47.52;95814.97;2072550;28;1505;-57
2022/05/06 04:41:20;;;;;;;;;;;;;;;19.59;47.32;95812.28;2070590;28;1125;-55
2022/05/06 04:42:21;;;;;;;;;;;;;;;19.59;47.38;95809.63;2074099;28;1320;-57
2022/05/06 04:43:23;;;;;;;;;;;;;;;19.60;47.45;95813.94;2079938;28;1081;-58
2022/05/06 04:44:24;;;;;;;;;;;;;;;19.61;47.35;95810.28;2073143;28;1667;-57
2022/05/06 04:45:26;;;;;;;;;;;;;;;19.60;47.55;95803.28;2074130;28;1018;-57
2022/05/06 04:46:28;;;;;;;;;;;;;;;19.61;47.25;95810.28;2075024;28;1481;-58
2022/05/06 04:47:29;;;;;;;;;;;;;;;19.61;47.35;95804.13;2075629;28;1164;-57
2022/05/06 04:48:31;;;;;;;;;;;;;;;19.61;47.75;95810.28;2073686;28;1374;-57
2022/05/06 04:49:32;;;;;;;;;;;;;;;19.61;47.42;95820.13;2080814;28;1207;-57
2022/05/06 04:50:34;;;;;;;;;;;;;;;19.60;47.65;95821.94;2080131;28;1450;-58
2022/05/06 04:51:36;;;;;;;;;;;;;;;19.61;47.81;95814.78;2076417;28;1222;-57
2022/05/06 04:52:37;;;;;;;;;;;;;;;19.60;47.47;95819.28;2065592;28;1528;-60
2022/05/06 04:53:39;;;;;;;;;;;;;;;19.62;47.81;95813.75;2069996;28;1435;-57
2022/05/06 04:54:40;;;;;;;;;;;;;;;19.60;47.72;95819.28;2073486;28;1136;-58
2022/05/06 04:55:46;;;;;;;;;;;;;;;19.63;47.80;95823.41;2081404;28;1544;-57
2022/05/06 04:56:49;;;;;;;;;;;;;;;19.64;47.77;95825.06;2079047;28;1985;-57
2022/05/06 04:57:50;;;;;;;;;;;;;;;19.63;47.52;95826.06;2073207;28;1163;-57
2022/05/06 04:58:52;;;;;;;;;;;;;;;19.62;47.89;95829.75;2073271;28;1670;-56
2022/05/06 04:59:53;;;;;;;;;;;;;;;19.62;47.72;95821.75;2074692;28;1801;-58
2022/05/06 05:00:55;;;;;;;;;;;;;;;19.63;47.72;95823.41;2078647;28;1285;-57
2022/05/06 05:01:57;;;;;;;;;;;;;;;19.63;47.87;95823.41;2076204;28;1167;-56
2022/05/06 05:02:59;;;;;;;;;;;;;;;19.63;47.98;95828.75;2077501;28;1340;-57
2022/05/06 05:04:01;;;;;;;;;;;;;;;19.64;47.95;95827.75;2075844;28;1519;-57
2022/05/06 05:05:06;;;;;;;;;;;;;;;19.63;47.76;95824.25;2068127;28;1663;-57
2022/05/06 05:06:08;;;;;;;;;;;;;;;19.63;48.00;95826.06;2073071;28;1523;-58
2022/05/06 05:07:10;;;;;;;;;;;;;;;19.63;47.77;95829.59;2079413;28;2084;-57
2022/05/06 05:08:11;;;;;;;;;;;;;;;19.64;47.74;95836.56;2076193;28;1117;-56
2022/05/06 05:09:13;;;;;;;;;;;;;;;19.65;47.99;95832.06;2073710;28;1251;-57
2022/05/06 05:10:15;;;;;;;;;;;;;;;19.62;48.16;95833.25;2073148;28;1061;-57
2022/05/06 05:11:16;;;;;;;;;;;;;;;19.63;47.76;95834.06;2080747;28;1263;-57
2022/05/06 05:12:18;;;;;;;;;;;;;;;19.63;47.97;95831.41;2079401;28;1424;-56
2022/05/06 05:13:20;;;;;;;;;;;;;;;19.63;47.72;95839.41;2072255;28;984;-58
2022/05/06 05:14:21;;;;;;;;;;;;;;;19.64;47.84;95833.06;2073166;28;1645;-56
2022/05/06 05:15:23;;;;;;;;;;;;;;;19.64;48.00;95836.56;2068980;28;1233;-58
2022/05/06 05:16:24;;;;;;;;;;;;;;;19.64;47.79;95841.06;2069004;28;1196;-57
2022/05/06 05:17:27;;;;;;;;;;;;;;;19.65;47.78;95832.88;2073135;28;1903;-58
2022/05/06 05:18:30;;;;;;;;;;;;;;;19.66;47.89;95836.38;2073034;28;1155;-57
2022/05/06 05:19:32;;;;;;;;;;;;;;;19.65;47.91;95837.38;2073110;28;1532;-57
2022/05/06 05:20:33;;;;;;;;;;;;;;;19.66;47.85;95836.38;2078643;28;1582;-58
2022/05/06 05:21:35;;;;;;;;;;;;;;;19.65;48.12;95837.38;2080702;28;1466;-57
2022/05/06 05:22:36;;;;;;;;;;;;;;;19.64;47.81;95836.56;2072546;28;1453;-59
2022/05/06 05:23:38;;;;;;;;;;;;;;;19.64;47.93;95833.91;2073300;28;1160;-59
2022/05/06 05:24:39;;;;;;;;;;;;;;;19.65;47.98;95834.72;2073153;28;1066;-56
2022/05/06 05:25:41;;;;;;;;;;;;;;;19.64;48.05;95836.56;2073671;28;1093;-56
2022/05/06 05:26:43;;;;;;;;;;;;;;;19.66;48.01;95834.53;2068686;28;1654;-60
2022/05/06 05:27:45;;;;;;;;;;;;;;;19.66;48.10;95831.88;2068957;28;1245;-57
2022/05/06 05:28:46;;;;;;;;;;;;;;;19.67;47.82;95835.38;2072853;28;1476;-58
2022/05/06 05:29:48;;;;;;;;;;;;;;;19.68;47.92;95837.00;2076235;28;1448;-56
2022/05/06 05:30:49;;;;;;;;;;;;;;;19.67;47.97;95840.69;2073560;28;1467;-56
2022/05/06 05:31:52;;;;;;;;;;;;;;;19.66;47.96;95833.69;2072981;28;1109;-57
2022/05/06 05:32:53;;;;;;;;;;;;;;;19.67;48.03;95833.53;2069506;28;1500;-57
2022/05/06 05:33:55;;;;;;;;;;;;;;;19.67;48.08;95838.03;2072803;28;1520;-56
2022/05/06 05:34:56;;;;;;;;;;;;;;;19.69;47.99;95835.16;2072530;28;1576;-59
2022/05/06 05:35:58;;;;;;;;;;;;;;;19.69;48.11;95828.03;2074404;28;1968;-57
2022/05/06 05:36:59;;;;;;;;;;;;;;;19.69;48.12;95832.50;2077895;28;1410;-59
2022/05/06 05:38:01;;;;;;;;;;;;;;;19.69;48.18;95830.69;2068575;28;2019;-57
2022/05/06 05:39:02;;;;;;;;;;;;;;;19.69;48.19;95838.69;2068272;28;1346;-57